Meridian Lake, Colorado
Current Conditions -  °F | °C
As of 10:53 AM on Sunday 25 Jan 2015 (Local Time) from KASE Reporting Station
Broken Clouds Broken Clouds  
Wind Chill: 37°   Ceiling: 4700
Heat Index: 37°   Visibility: 10mi
Dew Point: 23°   Wind: 0mph
Humidity: 57%   Direction: NA
Pressure: 30.39"   Gusts: NA
Location:  38.8977°N, 106.967°W
Report Text: KASE 251753Z 00000KT 10SM BKN047 03/M05 A3039 RMK AO2 SLP267 T00281050 10028 21067 50005
Loading
Personal Weather Stations






























Interactive Weather Map New forecast layout! Learn more

10-Day Weather Forecast

Advertisements
Track Severe Weather on mobile